createdAt,value
2016-10-16T00:01:23.483Z,19.2
2016-10-16T00:06:23.435Z,19.16
2016-10-16T00:11:23.387Z,19.23
2016-10-16T00:16:23.024Z,19.16
2016-10-16T00:21:23.286Z,19.15
2016-10-16T00:26:22.926Z,19.1
2016-10-16T00:31:23.180Z,19.05
2016-10-16T00:36:23.134Z,18.97
2016-10-16T00:41:23.088Z,19.02
2016-10-16T00:46:22.721Z,18.97
2016-10-16T00:51:22.979Z,19.02
2016-10-16T00:56:22.617Z,18.99
2016-10-16T01:01:22.869Z,18.89
2016-10-16T01:06:22.819Z,18.9
2016-10-16T01:11:22.458Z,18.9
2016-10-16T01:16:22.712Z,18.89
2016-10-16T01:21:22.660Z,18.89
2016-10-16T01:26:22.314Z,18.87
2016-10-16T01:31:22.559Z,18.81
2016-10-16T01:36:22.513Z,18.81
2016-10-16T01:41:22.451Z,18.75
2016-10-16T01:46:22.398Z,18.81
2016-10-16T01:51:22.050Z,18.78
2016-10-16T01:56:22.295Z,18.71
2016-10-16T02:01:22.247Z,18.72
2016-10-16T02:06:22.181Z,18.78
2016-10-16T02:11:22.135Z,18.69
2016-10-16T02:16:22.078Z,18.76
2016-10-16T02:21:21.736Z,18.76
2016-10-16T02:26:21.678Z,18.72
2016-10-16T02:31:21.616Z,18.71
2016-10-16T02:36:21.878Z,18.6
2016-10-16T02:41:21.813Z,18.66
2016-10-16T02:46:21.463Z,18.57
2016-10-16T02:51:21.415Z,18.56
2016-10-16T02:56:21.655Z,18.59
2016-10-16T03:01:21.300Z,18.6
2016-10-16T03:06:21.250Z,18.56
2016-10-16T03:11:21.506Z,18.56
2016-10-16T03:16:21.142Z,18.57
2016-10-16T03:21:21.089Z,18.54
2016-10-16T03:26:21.349Z,18.49
2016-10-16T03:31:21.288Z,18.51
2016-10-16T03:36:20.930Z,18.51
2016-10-16T03:41:20.574Z,18.45
2016-10-16T03:46:20.528Z,18.39
2016-10-16T03:51:21.077Z,18.42
2016-10-16T03:56:21.027Z,18.44
2016-10-16T04:01:20.971Z,18.45
2016-10-16T04:06:20.914Z,18.45
2016-10-16T04:11:20.560Z,18.42
2016-10-16T04:16:20.500Z,18.42
2016-10-16T04:21:20.750Z,18.38
2016-10-16T04:26:20.703Z,18.38
2016-10-16T04:31:20.337Z,18.34
2016-10-16T04:36:20.593Z,18.31
2016-10-16T04:41:20.241Z,18.2
2016-10-16T04:46:20.479Z,18.34
2016-10-16T04:51:20.118Z,18.35
2016-10-16T04:56:20.369Z,18.35
2016-10-16T05:01:20.012Z,18.24
2016-10-16T05:06:20.260Z,18.23
2016-10-16T05:11:20.204Z,18.29
2016-10-16T05:16:20.156Z,18.24
2016-10-16T05:21:20.098Z,18.24
2016-10-16T05:26:19.741Z,18.24
2016-10-16T05:31:19.689Z,18.23
2016-10-16T05:36:19.936Z,18.23
2016-10-16T05:41:19.569Z,18.31
2016-10-16T05:46:19.821Z,18.2
2016-10-16T05:51:19.767Z,18.2
2016-10-16T05:56:19.404Z,18.2
2016-10-16T06:01:19.044Z,18.1
2016-10-16T06:06:19.600Z,18.19
2016-10-16T06:11:19.547Z,18.17
2016-10-16T06:16:19.491Z,18.29
2016-10-16T06:21:19.133Z,18.49
2016-10-16T06:26:19.375Z,18.6
2016-10-16T06:31:19.320Z,18.68
2016-10-16T06:36:18.962Z,18.89
2016-10-16T06:41:19.220Z,18.91
2016-10-16T06:46:19.176Z,19.06
2016-10-16T06:51:19.100Z,19.1
2016-10-16T06:56:18.738Z,19.16
2016-10-16T07:01:18.990Z,19.24
2016-10-16T07:06:18.941Z,19.17
2016-10-16T07:11:18.882Z,19.2
2016-10-16T07:16:18.830Z,19.23
2016-10-16T07:21:18.470Z,19.34
2016-10-16T07:26:18.427Z,19.27
2016-10-16T07:31:18.364Z,19.31
2016-10-16T07:36:18.317Z,19.31
2016-10-16T07:41:18.571Z,19.3
2016-10-16T07:46:18.510Z,19.27
2016-10-16T07:51:18.455Z,19.31
2016-10-16T07:56:18.404Z,19.27
2016-10-16T08:01:18.361Z,19.25
2016-10-16T08:06:18.006Z,19.28
2016-10-16T08:11:17.952Z,19.28
2016-10-16T08:16:18.203Z,19.24
2016-10-16T08:21:18.155Z,19.24
2016-10-16T08:26:17.785Z,19.3
2016-10-16T08:31:17.739Z,19.42
2016-10-16T08:36:17.685Z,19.35
2016-10-16T08:41:17.949Z,19.28
2016-10-16T08:46:17.882Z,19.38
2016-10-16T08:51:17.836Z,19.4
2016-10-16T08:56:17.490Z,19.45
2016-10-16T09:01:17.126Z,19.52
2016-10-16T09:06:17.384Z,19.6
2016-10-16T09:11:17.330Z,19.67
2016-10-16T09:16:17.287Z,19.67
2016-10-16T09:21:17.540Z,19.67
2016-10-16T09:26:17.518Z,19.67
2016-10-16T09:31:17.444Z,19.78
2016-10-16T09:36:17.089Z,19.8
2016-10-16T09:41:17.045Z,19.79
2016-10-16T09:46:17.329Z,19.83
2016-10-16T09:51:17.251Z,19.82
2016-10-16T09:56:17.195Z,19.82
2016-10-16T10:01:17.158Z,19.79
2016-10-16T10:06:16.815Z,19.82
2016-10-16T10:11:16.454Z,19.79
2016-10-16T10:16:16.389Z,19.78
2016-10-16T10:21:16.955Z,19.82
2016-10-16T10:26:16.592Z,19.79
2016-10-16T10:31:16.540Z,19.74
2016-10-16T10:36:16.496Z,19.8
2016-10-16T10:41:16.441Z,19.79
2016-10-16T10:46:16.701Z,19.8
2016-10-16T10:51:16.339Z,19.85
2016-10-16T10:56:16.289Z,19.85
2016-10-16T11:01:15.939Z,19.86
2016-10-16T11:06:16.507Z,19.95
2016-10-16T11:11:16.147Z,19.95
2016-10-16T11:16:16.109Z,19.97
2016-10-16T11:21:16.365Z,20
2016-10-16T11:26:16.322Z,19.97
2016-10-16T11:31:15.673Z,19.93
2016-10-16T11:36:16.226Z,19.98
2016-10-16T11:41:15.874Z,19.98
2016-10-16T11:46:16.128Z,20.04
2016-10-16T11:51:16.075Z,19.97
2016-10-16T11:56:16.045Z,19.92
2016-10-16T12:01:15.989Z,19.97
2016-10-16T12:06:15.936Z,20.08
2016-10-16T12:11:15.883Z,20.2
2016-10-16T12:16:15.843Z,19.97
2016-10-16T12:21:15.808Z,19.92
2016-10-16T12:26:15.451Z,19.93
2016-10-16T12:31:15.374Z,19.9
2016-10-16T12:36:15.344Z,19.85
2016-10-16T12:41:15.596Z,20.18
2016-10-16T12:46:14.940Z,20.3
2016-10-16T12:51:15.489Z,20.46
2016-10-16T12:56:15.441Z,20.72
2016-10-16T13:01:15.392Z,20.68
2016-10-16T13:06:15.339Z,20.83
2016-10-16T13:11:15.285Z,20.86
2016-10-16T13:16:15.240Z,20.93
2016-10-16T13:21:15.189Z,20.96
2016-10-16T13:26:14.822Z,20.85
2016-10-16T13:31:14.773Z,21.11
2016-10-16T13:36:14.717Z,21.15
2016-10-16T13:41:14.673Z,21.11
2016-10-16T13:46:14.626Z,21.13
2016-10-16T13:51:14.879Z,21.04
2016-10-16T13:56:14.821Z,20.97
2016-10-16T14:01:14.471Z,20.75
2016-10-16T14:06:14.430Z,20.63
2016-10-16T14:11:14.376Z,20.49
2016-10-16T14:16:14.631Z,20.42
2016-10-16T14:21:14.577Z,20.42
2016-10-16T14:26:14.229Z,20.37
2016-10-16T14:31:14.470Z,20.4
2016-10-16T14:36:14.436Z,20.38
2016-10-16T14:41:15.052Z,20.27
2016-10-16T14:46:14.008Z,20.23
2016-10-16T14:51:14.265Z,20.22
2016-10-16T14:56:13.914Z,20.11
2016-10-16T15:01:14.172Z,20.08
2016-10-16T15:06:14.258Z,20.1
2016-10-16T15:11:14.095Z,20.1
2016-10-16T15:16:14.020Z,20
2016-10-16T15:21:13.681Z,19.93
2016-10-16T15:26:13.626Z,19.85
2016-10-16T15:31:13.875Z,19.97
2016-10-16T15:36:13.818Z,19.97
2016-10-16T15:41:13.778Z,20.08
2016-10-16T15:46:13.723Z,20.08
2016-10-16T15:51:13.388Z,20.12
2016-10-16T15:56:13.644Z,20.23
2016-10-16T16:01:13.600Z,20.38
2016-10-16T16:06:13.565Z,20.38
2016-10-16T16:11:13.507Z,20.44
2016-10-16T16:16:13.458Z,20.3
2016-10-16T16:21:13.107Z,20.38
2016-10-16T16:26:13.373Z,20.42
2016-10-16T16:31:13.341Z,20.4
2016-10-16T16:36:13.281Z,20.38
2016-10-16T16:41:12.928Z,20.3
2016-10-16T16:46:13.200Z,20.34
2016-10-16T16:51:12.846Z,20.27
2016-10-16T16:56:12.490Z,20.27
2016-10-16T17:01:12.779Z,20.29
2016-10-16T17:06:12.708Z,20.25
2016-10-16T17:11:12.662Z,20.26
2016-10-16T17:16:12.934Z,20.27
2016-10-16T17:21:12.874Z,20.25
2016-10-16T17:26:12.523Z,20.2
2016-10-16T17:31:12.482Z,20.18
2016-10-16T17:36:12.440Z,20.12
2016-10-16T17:41:12.385Z,20.18
2016-10-16T17:46:12.641Z,20.12
2016-10-16T17:51:12.289Z,20.19
2016-10-16T17:56:12.577Z,20.12
2016-10-16T18:01:12.518Z,20.29
2016-10-16T18:06:12.461Z,20.44
2016-10-16T18:11:12.417Z,20.48
2016-10-16T18:16:12.383Z,20.56
2016-10-16T18:21:12.330Z,20.76
2016-10-16T18:26:12.470Z,20.79
2016-10-16T18:31:12.237Z,20.83
2016-10-16T18:36:12.194Z,20.82
2016-10-16T18:41:12.143Z,20.82
2016-10-16T18:46:11.811Z,20.72
2016-10-16T18:51:12.054Z,20.78
2016-10-16T18:56:12.019Z,20.78
2016-10-16T19:01:11.665Z,20.72
2016-10-16T19:06:11.633Z,20.68
2016-10-16T19:11:11.879Z,20.74
2016-10-16T19:16:11.520Z,20.66
2016-10-16T19:21:11.488Z,20.64
2016-10-16T19:26:11.736Z,20.6
2016-10-16T19:31:11.388Z,20.61
2016-10-16T19:36:11.638Z,20.58
2016-10-16T19:41:11.612Z,20.57
2016-10-16T19:46:11.577Z,20.51
2016-10-16T19:51:11.202Z,20.51
2016-10-16T19:56:11.459Z,20.49
2016-10-16T20:01:11.413Z,20.51
2016-10-16T20:06:11.360Z,20.51
2016-10-16T20:11:11.320Z,20.53
2016-10-16T20:16:10.967Z,20.53
2016-10-16T20:21:11.244Z,20.58
2016-10-16T20:26:10.876Z,20.57
2016-10-16T20:31:10.818Z,20.58
2016-10-16T20:36:11.084Z,20.58
2016-10-16T20:41:11.041Z,20.61
2016-10-16T20:46:10.983Z,20.44
2016-10-16T20:51:10.938Z,20.57
2016-10-16T20:56:10.918Z,20.51
2016-10-16T21:01:10.857Z,20.49
2016-10-16T21:06:10.800Z,20.61
2016-10-16T21:11:10.772Z,20.53
2016-10-16T21:16:10.704Z,20.49
2016-10-16T21:21:10.347Z,20.46
2016-10-16T21:26:10.002Z,20.49
2016-10-16T21:31:10.258Z,20.42
2016-10-16T21:36:10.520Z,20.4
2016-10-16T21:41:10.473Z,20.37
2016-10-16T21:46:10.139Z,20.26
2016-10-16T21:51:10.377Z,20.3
2016-10-16T21:56:10.332Z,20.25
2016-10-16T22:01:10.283Z,20.22
2016-10-16T22:06:09.933Z,20.18
2016-10-16T22:11:09.886Z,20.22
2016-10-16T22:16:10.148Z,20.16
2016-10-16T22:21:10.100Z,20.07
2016-10-16T22:26:10.051Z,19.89
2016-10-16T22:31:09.706Z,19.98
2016-10-16T22:36:09.960Z,19.98
2016-10-16T22:41:09.900Z,19.86
2016-10-16T22:46:09.861Z,19.86
2016-10-16T22:51:09.501Z,19.87
2016-10-16T22:56:09.757Z,19.85
2016-10-16T23:01:09.705Z,19.79
2016-10-16T23:06:09.359Z,19.74
2016-10-16T23:11:09.615Z,19.71
2016-10-16T23:16:09.257Z,19.63
2016-10-16T23:21:09.206Z,19.64
2016-10-16T23:26:09.466Z,19.67
2016-10-16T23:31:09.428Z,19.64
2016-10-16T23:36:09.361Z,19.52
2016-10-16T23:41:09.311Z,19.6
2016-10-16T23:46:08.954Z,19.52
2016-10-16T23:51:09.214Z,19.47
2016-10-16T23:56:09.193Z,19.4
